Terminal Aerodrome Forecast
Issued by NWS

Home | Current Version | Previous Version | Text Only | Print | Product List | Glossary On
Versions: 1 2 3 4 5 6 7 8 9 10 11 12 13 14
490
FTUS42 TJSJ 252335
TAFJSJ
TAF
TJSJ 252335Z 2600/2624 10008KT P6SM SCT028 SCT100
     FM261400 11008KT P6SM VCSH SCT035 SCT040
     FM262330 13004KT P6SM FEW030 SCT050=

USA.gov is the U.S. government's official web portal to all federal, state and local government web resources and services.